Time;durP1;ratioP1;P1;durP2;ratioP2;P2;SDS_P1;SDS_P2;PMS_P1;PMS_P2;Temp;Humidity;BMP_temperature;BMP_pressure;BME280_temperature;BME280_humidity;BME280_pressure;Samples;Min_cycle;Max_cycle;Signal;HPM_P1;HPM_P2
2021/12/28 00:01:07;;;;;;;28.52;14.85;;;;;;;2.21;55.12;99340.22;4472564;32;34033;-69
2021/12/28 00:03:37;;;;;;;23.40;13.75;;;;;;;2.29;53.55;99332.00;4484139;32;33764;-69
2021/12/28 00:06:05;;;;;;;26.23;14.20;;;;;;;2.39;53.89;99326.22;4470389;32;33216;-69
2021/12/28 00:08:32;;;;;;;24.40;13.10;;;;;;;2.48;54.04;99333.00;4483930;32;33552;-69
2021/12/28 00:11:01;;;;;;;23.08;13.23;;;;;;;2.09;54.75;99326.59;4470095;32;33439;-69
2021/12/28 00:13:32;;;;;;;23.77;13.02;;;;;;;1.56;54.94;99324.66;4484147;32;34202;-69
2021/12/28 00:18:35;;;;;;;23.75;13.00;;;;;;;1.81;55.34;99324.09;4470758;32;34194;-68
2021/12/28 00:21:05;;;;;;;0.50;0.50;;;;;;;1.97;55.17;99312.19;4484068;32;34118;-69
2021/12/28 00:23:40;;;;;;;20.75;11.88;;;;;;;2.59;53.99;99324.38;4484054;32;34654;-69
2021/12/28 00:26:12;;;;;;;24.10;12.35;;;;;;;2.32;55.14;99323.53;4470776;32;33558;-68
2021/12/28 00:28:40;;;;;;;21.65;12.05;;;;;;;2.32;55.36;99323.53;4484489;32;33914;-68
2021/12/28 00:31:08;;;;;;;22.62;12.43;;;;;;;2.16;56.02;99321.25;4484187;32;34072;-66
2021/12/28 00:33:36;;;;;;;22.65;12.25;;;;;;;1.96;56.96;99324.72;4483925;32;34660;-67
2021/12/28 00:36:04;;;;;;;21.92;11.73;;;;;;;1.95;57.20;99327.63;4483947;31;33321;-68
2021/12/28 00:38:32;;;;;;;21.37;11.73;;;;;;;2.11;56.41;99326.41;4483777;32;34837;-68
2021/12/28 00:41:02;;;;;;;20.80;11.70;;;;;;;2.36;55.83;99329.31;4484002;32;35237;-68
2021/12/28 00:43:31;;;;;;;1.90;1.62;;;;;;;1.95;57.46;99333.81;4483949;32;33899;-68
2021/12/28 00:46:00;;;;;;;21.30;10.93;;;;;;;2.39;56.20;99334.25;4469851;32;34239;-68
2021/12/28 00:48:29;;;;;;;20.02;10.75;;;;;;;1.78;57.97;99335.19;4469488;32;34609;-68
2021/12/28 00:50:56;;;;;;;0.90;0.82;;;;;;;1.82;58.35;99331.09;4484085;32;34156;-69
2021/12/28 00:53:24;;;;;;;20.95;11.88;;;;;;;1.12;60.96;99335.75;4483715;32;33683;-69
2021/12/28 00:55:51;;;;;;;0.70;0.62;;;;;;;1.29;61.11;99334.41;4483819;32;34351;-68
2021/12/28 00:58:21;;;;;;;1.25;1.15;;;;;;;1.53;60.20;99337.56;4483894;32;33768;-68
2021/12/28 01:00:49;;;;;;;1.02;0.93;;;;;;;2.00;58.57;99334.00;4485535;32;35108;-69
2021/12/28 01:03:17;;;;;;;21.33;11.40;;;;;;;1.94;58.59;99331.31;4485632;32;33526;-69
2021/12/28 01:05:45;;;;;;;2.87;1.75;;;;;;;1.77;59.91;99325.50;4485447;32;33675;-69
2021/12/28 01:08:13;;;;;;;20.33;12.00;;;;;;;1.61;60.69;99332.06;4485589;32;33940;-66
2021/12/28 01:10:44;;;;;;;1.95;1.77;;;;;;;1.34;61.72;99323.09;4485765;32;35247;-67
2021/12/28 01:13:12;;;;;;;1.10;0.88;;;;;;;1.91;60.35;99332.56;4485657;32;34788;-68
2021/12/28 01:15:39;;;;;;;18.87;10.52;;;;;;;1.84;60.50;99324.50;4485055;32;33052;-68
2021/12/28 01:18:08;;;;;;;18.33;10.35;;;;;;;0.93;64.82;99323.94;4485666;32;33449;-68
2021/12/28 01:20:36;;;;;;;1.08;0.98;;;;;;;1.49;63.19;99310.44;4471440;32;33794;-67
2021/12/28 01:23:04;;;;;;;1.23;0.93;;;;;;;2.01;61.72;99305.41;4485813;32;34704;-67
2021/12/28 01:25:32;;;;;;;19.70;10.55;;;;;;;1.30;64.01;99305.84;4485460;32;33114;-67
2021/12/28 01:28:00;;;;;;;19.75;10.65;;;;;;;1.29;64.37;99299.66;4485370;32;34670;-68
2021/12/28 01:30:28;;;;;;;23.73;12.30;;;;;;;1.41;63.95;99297.25;4485326;32;35084;-67
2021/12/28 01:33:01;;;;;;;24.33;12.98;;;;;;;2.08;61.85;99297.41;4485692;32;33812;-67
2021/12/28 01:35:30;;;;;;;23.77;12.73;;;;;;;1.88;62.11;99298.19;4485064;32;33448;-67
2021/12/28 01:37:58;;;;;;;21.62;11.40;;;;;;;2.05;61.98;99298.59;4470807;32;33848;-66
2021/12/28 01:40:28;;;;;;;18.10;11.15;;;;;;;1.30;64.52;99292.47;4471324;32;34967;-67
2021/12/28 01:42:57;;;;;;;22.25;11.82;;;;;;;1.47;64.41;99292.94;4485533;32;33960;-67
2021/12/28 01:45:45;;;;;;;22.20;10.63;;;;;;;1.44;64.50;99289.63;4471309;32;34161;-67
2021/12/28 01:48:17;;;;;;;22.37;11.95;;;;;;;1.73;63.84;99300.19;4471180;32;34798;-67
2021/12/28 01:50:45;;;;;;;24.80;11.70;;;;;;;1.75;63.82;99288.28;4485590;32;34135;-68
2021/12/28 01:53:14;;;;;;;22.85;10.68;;;;;;;0.79;67.07;99288.31;4485465;32;34309;-69
2021/12/28 01:55:44;;;;;;;21.05;11.18;;;;;;;1.82;64.28;99289.12;4484877;32;33450;-69
2021/12/28 01:58:12;;;;;;;21.58;11.02;;;;;;;0.82;67.96;99282.56;4485244;32;33899;-68
2021/12/28 02:00:41;;;;;;;24.30;12.15;;;;;;;1.44;66.07;99294.16;4485370;32;34115;-69
2021/12/28 02:03:11;;;;;;;23.48;11.15;;;;;;;1.47;65.89;99288.44;4485219;32;33738;-69
2021/12/28 02:05:39;;;;;;;17.77;10.45;;;;;;;1.81;64.75;99289.31;4470652;32;34411;-68
2021/12/28 02:08:07;;;;;;;6.53;3.87;;;;;;;2.19;63.53;99289.56;4485273;32;33546;-68
2021/12/28 02:10:36;;;;;;;22.35;12.18;;;;;;;1.40;66.55;99272.38;4485266;32;34887;-68
2021/12/28 02:13:04;;;;;;;24.48;13.13;;;;;;;1.05;68.55;99268.13;4485363;32;33718;-69
2021/12/28 02:15:32;;;;;;;13.05;6.75;;;;;;;0.43;71.21;99262.63;4484721;32;33326;-68
2021/12/28 02:18:00;;;;;;;27.25;14.25;;;;;;;0.33;72.40;99252.31;4484933;32;33637;-68
2021/12/28 02:20:28;;;;;;;28.95;14.65;;;;;;;0.15;73.79;99259.94;4485048;32;34259;-68
2021/12/28 02:22:56;;;;;;;0.62;0.62;;;;;;;-0.40;76.33;99250.88;4485425;32;34079;-69
2021/12/28 02:25:23;;;;;;;0.98;0.90;;;;;;;-0.23;76.63;99253.06;4470549;32;32104;-68
2021/12/28 02:27:51;;;;;;;3.75;1.48;;;;;;;0.23;75.08;99262.47;4485337;32;33995;-68
2021/12/28 02:30:20;;;;;;;31.45;15.30;;;;;;;-0.05;75.31;99265.12;4484793;32;34275;-68
2021/12/28 02:32:49;;;;;;;2.20;1.98;;;;;;;0.28;73.71;99267.22;4485286;32;35158;-68
2021/12/28 02:35:21;;;;;;;26.70;14.40;;;;;;;0.45;73.48;99263.25;4485054;32;34126;-68
2021/12/28 02:37:50;;;;;;;27.70;13.60;;;;;;;0.99;71.12;99259.03;4470696;32;33867;-69
2021/12/28 02:40:21;;;;;;;1.55;1.05;;;;;;;1.23;69.15;99269.22;4470699;32;35186;-68
2021/12/28 02:42:55;;;;;;;0.85;0.85;;;;;;;0.72;70.98;99274.94;4485051;32;33625;-68
2021/12/28 02:45:26;;;;;;;26.48;13.70;;;;;;;1.15;69.37;99260.56;4484791;32;33345;-68
2021/12/28 02:47:54;;;;;;;29.25;14.75;;;;;;;1.43;68.18;99271.97;4470657;32;33981;-69
2021/12/28 02:50:28;;;;;;;25.02;13.07;;;;;;;0.78;70.84;99265.31;4485047;32;34043;-68
2021/12/28 02:52:57;;;;;;;27.10;14.05;;;;;;;1.02;69.50;99270.16;4484905;32;34005;-69
2021/12/28 02:55:30;;;;;;;27.83;14.90;;;;;;;1.15;69.31;99265.91;4484538;32;34365;-69
2021/12/28 02:58:00;;;;;;;28.27;14.87;;;;;;;0.77;70.36;99267.16;4470397;32;33666;-69
2021/12/28 03:00:32;;;;;;;26.52;14.77;;;;;;;1.13;69.27;99263.44;4484769;32;33948;-68
2021/12/28 03:03:08;;;;;;;1.27;1.05;;;;;;;0.94;70.04;99266.84;4484710;32;34869;-68
2021/12/28 03:05:38;;;;;;;26.25;14.73;;;;;;;-0.06;74.83;99255.50;4484703;32;33315;-69
2021/12/28 03:08:06;;;;;;;2.62;1.40;;;;;;;0.71;71.52;99261.78;4484833;32;34752;-68
2021/12/28 03:10:35;;;;;;;1.37;0.90;;;;;;;0.47;72.50;99255.88;4484721;32;33923;-68
2021/12/28 03:13:04;;;;;;;2.30;1.52;;;;;;;0.22;74.22;99254.66;4484874;32;34014;-68
2021/12/28 03:15:32;;;;;;;33.90;15.48;;;;;;;0.52;72.69;99258.81;4484432;32;33505;-68
2021/12/28 03:17:59;;;;;;;34.17;16.42;;;;;;;-0.11;75.50;99249.91;4470612;32;35041;-68
2021/12/28 03:20:27;;;;;;;29.55;15.65;;;;;;;0.48;73.40;99251.38;4484282;32;34684;-68
2021/12/28 03:22:55;;;;;;;35.58;16.02;;;;;;;-0.29;75.82;99247.69;4484246;32;33995;-68
2021/12/28 03:25:22;;;;;;;31.42;15.95;;;;;;;-0.15;76.02;99270.81;4484412;32;34537;-68
2021/12/28 03:27:49;;;;;;;29.35;15.68;;;;;;;-0.12;75.57;99272.25;4484747;32;33504;-68
2021/12/28 03:30:17;;;;;;;29.55;17.10;;;;;;;0.14;74.14;99260.97;4484701;32;34164;-69
2021/12/28 03:32:45;;;;;;;2.25;2.05;;;;;;;0.65;72.69;99251.88;4484701;32;33674;-68
2021/12/28 03:35:14;;;;;;;33.13;17.45;;;;;;;0.26;73.02;99254.13;4484382;32;34053;-68
2021/12/28 03:37:42;;;;;;;30.10;16.65;;;;;;;-0.40;75.98;99257.03;4484400;31;33930;-68
2021/12/28 03:40:12;;;;;;;8.18;3.90;;;;;;;-0.39;76.82;99253.31;4464119;32;34183;-68
2021/12/28 03:42:41;;;;;;;28.98;15.63;;;;;;;0.35;74.32;99263.59;4484708;32;33942;-69
2021/12/28 03:45:10;;;;;;;36.03;16.77;;;;;;;0.44;73.42;99252.78;4484067;32;33581;-68
2021/12/28 03:47:38;;;;;;;1.55;1.05;;;;;;;0.31;73.80;99261.53;4483575;32;33661;-68
2021/12/28 03:50:07;;;;;;;31.35;16.10;;;;;;;1.05;71.19;99258.25;4470135;32;34187;-68
2021/12/28 03:52:34;;;;;;;30.02;16.55;;;;;;;1.21;69.80;99267.78;4484323;32;33868;-68
2021/12/28 03:55:03;;;;;;;31.87;15.20;;;;;;;0.62;72.36;99261.09;4470043;32;34427;-67
2021/12/28 03:57:31;;;;;;;0.65;0.65;;;;;;;1.05;71.49;99266.25;4470234;32;33958;-67
2021/12/28 03:59:58;;;;;;;34.67;17.80;;;;;;;1.35;70.71;99271.31;4484294;32;34285;-67
2021/12/28 04:02:26;;;;;;;38.22;18.73;;;;;;;0.90;71.23;99268.25;4484631;32;34582;-67
2021/12/28 04:04:54;;;;;;;14.10;7.35;;;;;;;1.30;70.50;99263.91;4484257;32;34025;-66
2021/12/28 04:07:21;;;;;;;40.30;18.77;;;;;;;1.00;71.75;99268.72;4484292;32;34760;-67
2021/12/28 04:12:21;;;;;;;42.25;20.48;;;;;;;0.29;75.45;99271.56;4484508;32;34184;-67
2021/12/28 04:14:48;;;;;;;43.40;21.02;;;;;;;0.68;74.28;99273.66;4483575;32;33440;-67
2021/12/28 04:17:16;;;;;;;41.80;21.02;;;;;;;0.30;75.55;99262.53;4478528;32;33389;-68
2021/12/28 04:19:43;;;;;;;2.70;1.87;;;;;;;0.43;74.89;99267.13;4484148;32;34889;-68
2021/12/28 04:22:11;;;;;;;39.08;19.83;;;;;;;0.15;77.42;99262.63;4484182;32;34821;-67
2021/12/28 04:24:38;;;;;;;41.75;18.83;;;;;;;0.63;75.34;99268.09;4483939;32;34504;-67
2021/12/28 04:27:22;;;;;;;45.42;18.90;;;;;;;0.81;75.43;99267.59;4484248;32;33976;-66
2021/12/28 04:29:50;;;;;;;44.08;19.62;;;;;;;1.13;74.44;99271.44;4484418;32;34283;-68
2021/12/28 04:32:17;;;;;;;39.70;17.65;;;;;;;0.78;75.24;99274.16;4484310;32;34569;-66
2021/12/28 04:34:50;;;;;;;39.47;17.67;;;;;;;1.07;74.80;99271.41;4482481;32;32975;-69
2021/12/28 04:37:19;;;;;;;43.92;17.83;;;;;;;0.76;75.99;99267.38;4484299;32;33841;-68
2021/12/28 04:39:46;;;;;;;2.90;2.25;;;;;;;0.35;78.44;99274.28;4483830;32;34104;-68
2021/12/28 04:42:14;;;;;;;40.22;17.33;;;;;;;0.41;78.23;99275.34;4484298;32;33646;-65
2021/12/28 04:44:41;;;;;;;3.50;1.85;;;;;;;0.93;76.17;99273.19;4483774;32;33624;-67
2021/12/28 04:47:09;;;;;;;2.00;1.80;;;;;;;0.25;79.75;99267.63;4483619;32;33778;-65
2021/12/28 04:49:36;;;;;;;1.70;1.45;;;;;;;1.17;75.47;99274.53;4483934;32;34007;-69
2021/12/28 04:52:05;;;;;;;32.28;14.30;;;;;;;0.85;76.95;99263.50;4484642;32;33786;-71
2021/12/28 04:54:32;;;;;;;30.52;14.18;;;;;;;0.81;76.46;99252.38;4484824;32;33657;-70
2021/12/28 04:57:00;;;;;;;0.82;0.70;;;;;;;0.23;78.67;99259.00;4484859;32;33953;-71
2021/12/28 04:59:27;;;;;;;33.97;14.30;;;;;;;0.44;79.18;99255.47;4484963;32;33794;-70
2021/12/28 05:01:55;;;;;;;1.05;0.95;;;;;;;0.26;79.43;99253.25;4484984;32;33719;-70
2021/12/28 05:04:22;;;;;;;36.95;15.30;;;;;;;0.31;79.38;99249.00;4484729;32;33566;-71
2021/12/28 05:06:52;;;;;;;34.78;14.10;;;;;;;0.45;79.37;99260.59;4484842;32;33570;-68
2021/12/28 05:09:20;;;;;;;32.60;14.05;;;;;;;0.50;78.52;99252.84;4484427;32;33985;-68
2021/12/28 05:11:48;;;;;;;35.30;14.25;;;;;;;0.23;79.91;99256.34;4484743;32;34852;-69
2021/12/28 05:14:17;;;;;;;32.97;14.23;;;;;;;0.81;77.86;99267.59;4484690;32;33926;-68
2021/12/28 05:16:45;;;;;;;34.65;14.10;;;;;;;0.77;77.25;99266.31;4484287;32;34008;-69
2021/12/28 05:19:14;;;;;;;30.60;13.82;;;;;;;1.15;76.34;99263.22;4484599;32;34310;-69
2021/12/28 05:21:43;;;;;;;33.83;14.32;;;;;;;1.03;75.72;99261.09;4484567;32;34981;-67
2021/12/28 05:24:10;;;;;;;28.73;13.23;;;;;;;0.27;79.51;99261.09;4484376;32;33657;-68
2021/12/28 05:26:38;;;;;;;28.00;13.32;;;;;;;0.32;79.50;99265.84;4484943;32;33756;-69
2021/12/28 05:29:06;;;;;;;28.12;13.00;;;;;;;0.20;80.39;99266.38;4484393;32;35057;-70
2021/12/28 05:31:33;;;;;;;21.42;10.40;;;;;;;0.75;78.20;99269.19;4484510;32;34006;-69
2021/12/28 05:34:01;;;;;;;9.23;4.97;;;;;;;1.07;76.25;99272.22;4484372;32;33529;-69
2021/12/28 05:36:28;;;;;;;22.27;10.48;;;;;;;1.01;77.21;99284.53;4484360;32;34012;-69
2021/12/28 05:38:56;;;;;;;20.92;10.75;;;;;;;0.90;77.31;99276.25;4484368;32;35071;-69
2021/12/28 05:41:24;;;;;;;1.25;1.15;;;;;;;0.54;77.98;99277.28;4483795;32;33914;-68
2021/12/28 05:43:52;;;;;;;0.73;0.70;;;;;;;0.79;78.17;99278.44;4482761;32;33086;-69
2021/12/28 05:46:19;;;;;;;19.27;9.43;;;;;;;0.70;78.32;99278.81;4484516;32;33664;-66
2021/12/28 05:48:47;;;;;;;24.48;10.77;;;;;;;0.70;78.56;99278.81;4476490;32;34261;-69
2021/12/28 05:51:15;;;;;;;18.20;9.30;;;;;;;0.57;77.76;99272.38;4469443;32;34800;-68
2021/12/28 05:53:42;;;;;;;22.98;10.15;;;;;;;0.51;78.70;99280.34;4469402;32;34294;-66
2021/12/28 05:56:10;;;;;;;21.45;10.48;;;;;;;0.24;80.61;99288.16;4462975;32;33550;-68
2021/12/28 05:58:37;;;;;;;0.95;0.77;;;;;;;0.54;79.18;99285.28;4469244;32;35060;-68
2021/12/28 06:01:05;;;;;;;0.77;0.62;;;;;;;0.43;79.46;99283.97;4469061;32;34875;-68
2021/12/28 06:03:33;;;;;;;17.20;8.25;;;;;;;0.72;77.69;99298.16;4468850;32;33648;-66
2021/12/28 06:06:00;;;;;;;3.25;2.92;;;;;;;0.34;79.57;99287.81;4469261;32;33795;-69
2021/12/28 06:08:28;;;;;;;21.17;8.48;;;;;;;0.25;80.35;99289.81;4469157;32;33640;-68
2021/12/28 06:10:59;;;;;;;21.15;9.30;;;;;;;0.25;80.49;99289.81;4469128;32;34002;-67
2021/12/28 06:13:27;;;;;;;15.98;8.40;;;;;;;0.47;79.14;99295.91;4455278;32;33493;-69
2021/12/28 06:15:54;;;;;;;20.20;8.65;;;;;;;0.49;79.73;99299.22;4454908;32;33476;-69
2021/12/28 06:18:22;;;;;;;0.70;0.70;;;;;;;0.16;80.26;99309.63;4468743;32;34149;-69
2021/12/28 06:20:50;;;;;;;17.90;8.32;;;;;;;0.33;79.56;99302.19;4469203;32;34660;-69
2021/12/28 06:23:17;;;;;;;23.55;10.93;;;;;;;0.51;78.76;99296.34;4469217;32;33252;-77
2021/12/28 06:25:45;;;;;;;22.85;9.52;;;;;;;0.06;81.53;99293.13;4469204;32;33848;-76
2021/12/28 06:28:12;;;;;;;20.83;9.00;;;;;;;0.02;82.60;99294.53;4473974;32;34005;-75
2021/12/28 06:30:40;;;;;;;0.88;0.88;;;;;;;0.58;79.46;99298.06;4490559;31;33785;-71
2021/12/28 06:33:07;;;;;;;21.92;9.43;;;;;;;0.05;81.22;99299.50;4500275;31;34220;-71
2021/12/28 06:35:35;;;;;;;20.58;9.00;;;;;;;0.10;81.14;99297.88;4500392;31;34172;-69
2021/12/28 06:38:03;;;;;;;20.00;9.05;;;;;;;0.11;81.43;99298.69;4500402;31;33792;-69
2021/12/28 06:40:30;;;;;;;16.95;8.48;;;;;;;0.11;81.20;99304.03;4500476;31;33668;-69
2021/12/28 06:42:58;;;;;;;18.00;8.00;;;;;;;0.40;80.26;99309.22;4500436;31;33523;-71
2021/12/28 06:45:27;;;;;;;21.15;8.70;;;;;;;-0.17;82.31;99302.16;4500899;31;34407;-70
2021/12/28 06:47:55;;;;;;;17.27;8.00;;;;;;;0.38;80.50;99305.91;4500076;31;34133;-73
2021/12/28 06:50:22;;;;;;;2.47;1.65;;;;;;;-0.20;81.90;99305.19;4500317;31;34122;-70
2021/12/28 06:52:49;;;;;;;15.98;8.25;;;;;;;-0.61;83.98;99311.09;4486351;31;33576;-70
2021/12/28 06:55:17;;;;;;;12.07;6.12;;;;;;;0.72;79.43;99308.81;4500541;31;34602;-70
2021/12/28 06:57:44;;;;;;;17.30;7.62;;;;;;;0.19;81.67;99314.56;4499412;31;34843;-69
2021/12/28 07:00:15;;;;;;;18.85;8.32;;;;;;;0.50;80.35;99311.56;4500434;31;33822;-68
2021/12/28 07:02:44;;;;;;;16.75;8.38;;;;;;;0.52;79.68;99320.19;4499972;31;33590;-67
2021/12/28 07:05:12;;;;;;;18.23;8.65;;;;;;;-0.03;81.47;99313.75;4500190;31;34835;-68
2021/12/28 07:07:40;;;;;;;0.95;0.85;;;;;;;-0.18;82.81;99313.81;4500274;31;33961;-69
2021/12/28 07:10:09;;;;;;;19.15;9.07;;;;;;;-0.20;82.87;99326.53;4500460;31;33945;-69
2021/12/28 07:12:36;;;;;;;0.60;0.60;;;;;;;-0.62;84.53;99326.28;4500057;31;33560;-68
2021/12/28 07:15:05;;;;;;;20.90;9.73;;;;;;;-0.16;83.79;99329.66;4500203;31;34727;-70
2021/12/28 07:17:33;;;;;;;17.02;8.52;;;;;;;-0.25;83.82;99337.75;4499774;31;34297;-67
2021/12/28 07:20:00;;;;;;;20.08;8.60;;;;;;;0.60;80.42;99338.75;4485847;31;33336;-69
2021/12/28 07:22:28;;;;;;;0.60;0.60;;;;;;;0.68;79.36;99340.41;4486147;31;33466;-64
2021/12/28 07:24:55;;;;;;;17.83;9.48;;;;;;;0.74;78.97;99338.81;4500255;31;33980;-69
2021/12/28 07:27:23;;;;;;;18.92;8.80;;;;;;;0.82;78.14;99339.50;4497446;31;35108;-70
2021/12/28 07:29:50;;;;;;;18.45;8.82;;;;;;;1.01;78.10;99339.81;4484568;32;33059;-69
2021/12/28 07:32:18;;;;;;;16.45;8.02;;;;;;;0.80;78.50;99335.38;4484472;32;33572;-70
2021/12/28 07:34:45;;;;;;;15.32;8.35;;;;;;;1.43;76.65;99335.28;4484357;32;33930;-70
2021/12/28 07:37:12;;;;;;;18.23;8.98;;;;;;;1.49;76.13;99333.66;4484107;32;34209;-70
2021/12/28 07:39:40;;;;;;;19.20;8.63;;;;;;;0.70;78.29;99341.06;4484440;32;33770;-69
2021/12/28 07:42:08;;;;;;;18.37;8.88;;;;;;;0.87;77.88;99343.44;4484423;32;33771;-70
2021/12/28 07:44:54;;;;;;;2.15;2.05;;;;;;;0.24;80.31;99346.84;4484729;32;33733;-70
2021/12/28 07:47:22;;;;;;;21.33;9.50;;;;;;;0.25;80.83;99339.66;4484241;32;34167;-70
2021/12/28 07:49:50;;;;;;;1.05;0.95;;;;;;;0.40;80.10;99343.91;4484399;32;33621;-70
2021/12/28 07:52:17;;;;;;;21.42;9.80;;;;;;;0.78;79.30;99346.25;4481735;32;34376;-66
2021/12/28 07:54:45;;;;;;;20.70;9.75;;;;;;;0.97;78.35;99347.41;4482678;32;33854;-65
2021/12/28 07:57:12;;;;;;;19.58;9.25;;;;;;;0.49;80.77;99344.59;4484496;32;34280;-68
2021/12/28 07:59:40;;;;;;;22.75;11.30;;;;;;;0.20;80.85;99343.75;4484620;32;33721;-68
2021/12/28 08:02:08;;;;;;;20.08;10.05;;;;;;;0.40;81.04;99349.25;4484097;32;33681;-69
2021/12/28 08:04:36;;;;;;;1.58;1.48;;;;;;;0.25;80.75;99343.16;4484238;32;33973;-68
2021/12/28 08:07:10;;;;;;;5.68;2.05;;;;;;;0.10;82.11;99343.22;4483827;32;33860;-69
2021/12/28 08:09:37;;;;;;;19.50;9.25;;;;;;;-0.06;82.72;99354.16;4483980;32;34786;-69
2021/12/28 08:12:05;;;;;;;19.55;8.93;;;;;;;0.14;82.46;99333.81;4484042;32;33349;-66
2021/12/28 08:14:32;;;;;;;0.65;0.65;;;;;;;0.04;83.17;99335.97;4483354;32;33954;-68
2021/12/28 08:17:00;;;;;;;1.10;0.90;;;;;;;0.71;80.29;99345.34;4484004;32;35082;-68
2021/12/28 08:19:27;;;;;;;19.33;8.80;;;;;;;0.26;81.39;99341.31;4483925;32;34583;-66
2021/12/28 08:21:55;;;;;;;17.17;8.50;;;;;;;-0.21;83.83;99335.53;4483855;32;33596;-66
2021/12/28 08:24:23;;;;;;;20.52;8.85;;;;;;;0.16;82.58;99331.78;4484177;32;34086;-68
2021/12/28 08:26:50;;;;;;;4.78;2.35;;;;;;;-0.09;83.78;99328.69;4483881;32;34015;-70
2021/12/28 08:29:18;;;;;;;15.82;7.55;;;;;;;0.24;82.23;99324.66;4484869;32;34009;-66
2021/12/28 08:31:46;;;;;;;18.42;8.93;;;;;;;0.53;81.00;99329.03;4484927;32;34503;-67
2021/12/28 08:34:13;;;;;;;1.05;0.85;;;;;;;0.15;82.41;99331.97;4485039;32;33785;-67
2021/12/28 08:36:41;;;;;;;18.98;8.90;;;;;;;0.22;82.54;99326.69;4484557;31;34241;-69
2021/12/28 08:39:08;;;;;;;22.42;8.90;;;;;;;0.62;81.16;99333.19;4484682;32;33701;-67
2021/12/28 08:41:36;;;;;;;17.85;8.25;;;;;;;0.09;83.72;99338.09;4485359;32;33337;-67
2021/12/28 08:44:03;;;;;;;8.50;5.18;;;;;;;0.26;83.13;99343.97;4484796;32;33745;-69
2021/12/28 08:46:31;;;;;;;2.03;1.20;;;;;;;0.43;82.87;99350.69;4484930;32;34813;-70
2021/12/28 08:48:58;;;;;;;22.90;9.68;;;;;;;0.60;80.92;99357.44;4483289;32;34564;-68
2021/12/28 08:51:26;;;;;;;21.00;9.18;;;;;;;0.56;81.12;99352.66;4484729;32;34344;-69
2021/12/28 08:53:53;;;;;;;15.63;7.78;;;;;;;-0.39;84.98;99357.25;4471580;32;33754;-68
2021/12/28 08:56:21;;;;;;;19.70;8.38;;;;;;;0.79;80.29;99355.91;4469079;32;34010;-69
2021/12/28 08:58:50;;;;;;;18.80;8.25;;;;;;;0.53;80.55;99356.53;4469028;32;34225;-68
2021/12/28 09:01:18;;;;;;;17.60;8.88;;;;;;;0.25;82.31;99350.34;4469247;32;33537;-69
2021/12/28 09:03:46;;;;;;;23.73;10.05;;;;;;;0.73;80.14;99346.00;4469144;32;34087;-69
2021/12/28 09:06:13;;;;;;;22.52;10.00;;;;;;;0.50;81.32;99348.09;4468833;32;34160;-66
2021/12/28 09:08:41;;;;;;;22.23;10.73;;;;;;;0.43;81.38;99345.34;4467828;32;33773;-69
2021/12/28 09:11:08;;;;;;;24.02;10.27;;;;;;;0.06;83.40;99330.47;4469185;32;33502;-68
2021/12/28 09:13:37;;;;;;;24.17;11.25;;;;;;;0.11;82.75;99326.22;4468662;32;34648;-67
2021/12/28 09:16:05;;;;;;;1.67;1.58;;;;;;;0.02;83.91;99324.69;4468942;32;35122;-64
2021/12/28 09:18:32;;;;;;;24.58;12.37;;;;;;;0.70;81.11;99332.22;4468575;32;34127;-67
2021/12/28 09:21:00;;;;;;;25.77;11.25;;;;;;;0.50;81.74;99334.75;4469739;32;34389;-67
2021/12/28 09:23:28;;;;;;;2.37;1.25;;;;;;;0.90;80.15;99329.69;4470984;32;34864;-67
2021/12/28 09:26:16;;;;;;;23.58;10.48;;;;;;;0.42;81.40;99311.69;4470678;32;34193;-68
2021/12/28 09:28:43;;;;;;;20.85;10.90;;;;;;;0.42;81.81;99317.03;4470839;32;34057;-68
2021/12/28 09:31:11;;;;;;;26.20;12.13;;;;;;;-0.04;83.85;99322.78;4470635;32;33449;-71
2021/12/28 09:33:38;;;;;;;1.75;0.88;;;;;;;0.09;83.87;99327.44;4470807;32;34018;-71
2021/12/28 09:36:09;;;;;;;2.25;1.02;;;;;;;0.10;84.03;99329.06;4470833;32;34153;-71
2021/12/28 09:38:36;;;;;;;28.12;11.85;;;;;;;0.24;83.30;99330.00;4470715;32;33891;-71
2021/12/28 09:41:04;;;;;;;29.30;12.70;;;;;;;0.12;84.38;99325.19;4456906;32;34434;-71
2021/12/28 09:43:32;;;;;;;3.92;2.28;;;;;;;-0.50;86.62;99329.25;4470410;32;34761;-70
2021/12/28 09:46:00;;;;;;;29.85;13.23;;;;;;;0.24;84.98;99325.50;4470905;32;34641;-71
2021/12/28 09:48:27;;;;;;;7.07;4.68;;;;;;;0.70;82.27;99318.88;4470633;32;34765;-71
2021/12/28 09:50:55;;;;;;;31.17;13.82;;;;;;;0.67;81.48;99324.59;4470790;32;33446;-72
2021/12/28 09:53:22;;;;;;;27.75;12.27;;;;;;;0.27;83.44;99322.44;4470763;32;33965;-71
2021/12/28 09:55:50;;;;;;;26.45;12.43;;;;;;;0.07;84.73;99322.28;4470412;32;34848;-72
2021/12/28 09:58:18;;;;;;;2.75;1.30;;;;;;;-0.82;88.65;99330.53;4470514;32;33844;-72
2021/12/28 10:01:05;;;;;;;27.70;12.37;;;;;;;0.25;85.59;99329.00;4470427;32;33404;-72
2021/12/28 10:03:33;;;;;;;29.45;13.07;;;;;;;0.09;85.39;99328.25;4470603;32;34631;-72
2021/12/28 10:06:14;;;;;;;2.40;2.20;;;;;;;-0.02;84.59;99313.59;4470798;32;34799;-72
2021/12/28 10:08:43;;;;;;;34.05;13.65;;;;;;;0.31;83.50;99323.72;4468998;32;34233;-69
2021/12/28 10:11:10;;;;;;;28.92;12.98;;;;;;;0.67;81.96;99325.44;4456531;32;33716;-67
2021/12/28 10:13:38;;;;;;;1.70;1.40;;;;;;;1.28;80.20;99329.28;4470294;32;34706;-70
2021/12/28 10:16:05;;;;;;;26.85;12.93;;;;;;;1.23;79.88;99327.16;4470542;32;35057;-67
2021/12/28 10:18:33;;;;;;;28.33;11.73;;;;;;;1.09;80.72;99314.78;4470513;32;34702;-65
2021/12/28 10:21:03;;;;;;;29.48;12.37;;;;;;;0.35;83.20;99310.81;4470278;32;33770;-64
2021/12/28 10:23:32;;;;;;;1.60;0.88;;;;;;;0.25;83.18;99315.66;4470894;32;34847;-66
2021/12/28 10:26:10;;;;;;;19.92;9.98;;;;;;;0.06;85.17;99309.94;4470560;32;33953;-65
2021/12/28 10:28:38;;;;;;;21.15;10.57;;;;;;;0.69;82.16;99307.37;4470521;32;34022;-66
2021/12/28 10:31:08;;;;;;;23.87;10.20;;;;;;;0.53;82.26;99305.81;4470235;32;33327;-66
2021/12/28 10:33:37;;;;;;;22.50;10.80;;;;;;;0.16;84.10;99307.78;4469644;32;34807;-66
2021/12/28 10:36:10;;;;;;;20.80;10.15;;;;;;;0.49;82.73;99291.19;4470224;32;34192;-66
2021/12/28 10:38:40;;;;;;;22.87;10.63;;;;;;;0.32;82.88;99290.66;4470364;32;33953;-66
2021/12/28 10:41:11;;;;;;;18.17;9.45;;;;;;;0.17;83.80;99296.12;4470176;32;34070;-67
2021/12/28 10:43:43;;;;;;;1.10;1.00;;;;;;;0.35;84.14;99297.47;4470345;32;34907;-68
2021/12/28 10:46:19;;;;;;;16.33;9.23;;;;;;;0.47;82.74;99297.75;4455853;32;34207;-68
2021/12/28 10:48:51;;;;;;;20.88;9.63;;;;;;;0.74;81.29;99294.25;4470639;32;33735;-69
2021/12/28 10:51:27;;;;;;;5.47;3.60;;;;;;;0.51;81.93;99289.16;4453959;32;33398;-66
2021/12/28 10:56:32;;;;;;;2.83;0.93;;;;;;;0.24;83.08;99288.16;4454340;32;33990;-65
2021/12/28 10:58:59;;;;;;;19.05;10.20;;;;;;;0.33;82.82;99278.16;4461118;32;34135;-66
2021/12/28 11:01:31;;;;;;;1.85;1.02;;;;;;;0.63;81.86;99276.13;4469604;32;34453;-66
2021/12/28 11:04:09;;;;;;;21.67;9.90;;;;;;;-0.03;85.21;99268.44;4468901;32;34330;-64
2021/12/28 11:06:40;;;;;;;17.67;8.77;;;;;;;0.22;84.68;99266.19;4456160;32;34937;-67
2021/12/28 11:09:23;;;;;;;17.80;8.80;;;;;;;0.48;83.35;99275.41;4470223;32;34738;-66
2021/12/28 11:11:52;;;;;;;0.40;0.40;;;;;;;0.99;81.37;99285.75;4469420;32;33579;-66
2021/12/28 11:14:25;;;;;;;17.67;8.30;;;;;;;0.81;80.96;99283.59;4470039;32;33748;-67
2021/12/28 11:16:55;;;;;;;17.17;7.95;;;;;;;0.67;82.67;99282.72;4469618;32;34223;-67
2021/12/28 11:19:26;;;;;;;16.70;8.23;;;;;;;1.12;80.85;99285.81;4474009;32;33470;-69
2021/12/28 11:21:58;;;;;;;17.95;8.70;;;;;;;0.79;80.81;99267.78;4471407;32;33301;-68
2021/12/28 11:24:31;;;;;;;1.00;0.70;;;;;;;1.20;79.22;99266.94;4485660;32;33369;-66
2021/12/28 11:27:00;;;;;;;19.55;9.43;;;;;;;1.17;79.22;99261.19;4485557;32;35311;-67
2021/12/28 11:29:48;;;;;;;16.00;7.80;;;;;;;1.54;78.44;99261.72;4485585;32;34625;-67
2021/12/28 11:32:17;;;;;;;16.35;8.75;;;;;;;1.20;79.50;99255.44;4485672;32;34078;-65
2021/12/28 11:34:45;;;;;;;12.82;1.95;;;;;;;0.83;80.97;99254.87;4485006;32;33875;-67
2021/12/28 11:37:17;;;;;;;16.65;9.30;;;;;;;0.93;80.35;99246.47;4485462;32;34187;-67
2021/12/28 11:39:49;;;;;;;17.40;8.43;;;;;;;0.56;82.11;99244.03;4485370;32;34716;-69
2021/12/28 11:42:18;;;;;;;16.90;8.63;;;;;;;0.51;82.72;99235.78;4485872;32;33460;-70
2021/12/28 11:44:46;;;;;;;0.65;0.65;;;;;;;1.26;80.17;99238.59;4469374;32;34017;-66
2021/12/28 11:47:14;;;;;;;0.50;0.50;;;;;;;1.08;80.61;99232.97;4485338;32;35148;-69